sensor_id;sensor_type;location;lat;lon;timestamp;temperature;humidity
21551;DHT22;10936;49.836;7.078;2023-03-05T07:01:26;2.80;99.90
21551;DHT22;10936;49.836;7.078;2023-03-05T07:03:53;2.80;99.90
21551;DHT22;10936;49.836;7.078;2023-03-05T07:06:20;2.70;99.90
21551;DHT22;10936;49.836;7.078;2023-03-05T07:08:46;2.70;99.90
21551;DHT22;10936;49.836;7.078;2023-03-05T07:11:17;2.60;99.90
21551;DHT22;10936;49.836;7.078;2023-03-05T07:13:44;2.70;99.90
21551;DHT22;10936;49.836;7.078;2023-03-05T07:16:17;2.70;99.90
21551;DHT22;10936;49.836;7.078;2023-03-05T07:18:43;2.70;99.90
21551;DHT22;10936;49.836;7.078;2023-03-05T07:21:10;2.80;99.90
21551;DHT22;10936;49.836;7.078;2023-03-05T07:23:39;2.80;99.90
21551;DHT22;10936;49.836;7.078;2023-03-05T07:26:05;2.80;99.90
21551;DHT22;10936;49.836;7.078;2023-03-05T07:28:32;2.90;99.90
21551;DHT22;10936;49.836;7.078;2023-03-05T07:31:00;2.80;99.90
21551;DHT22;10936;49.836;7.078;2023-03-05T07:33:27;2.90;99.90
21551;DHT22;10936;49.836;7.078;2023-03-05T07:35:53;3.00;99.90
21551;DHT22;10936;49.836;7.078;2023-03-05T07:38:19;3.20;99.90
21551;DHT22;10936;49.836;7.078;2023-03-05T07:40:45;3.20;99.90
21551;DHT22;10936;49.836;7.078;2023-03-05T07:43:10;3.20;99.90
21551;DHT22;10936;49.836;7.078;2023-03-05T07:45:40;3.10;99.90
21551;DHT22;10936;49.836;7.078;2023-03-05T07:48:07;3.10;99.90
21551;DHT22;10936;49.836;7.078;2023-03-05T07:50:33;3.00;99.90
21551;DHT22;10936;49.836;7.078;2023-03-05T07:52:59;3.00;99.90
21551;DHT22;10936;49.836;7.078;2023-03-05T07:55:24;2.90;99.90
21551;DHT22;10936;49.836;7.078;2023-03-05T07:57:50;2.90;99.90
21551;DHT22;10936;49.836;7.078;2023-03-05T08:00:16;3.10;99.90
21551;DHT22;10936;49.836;7.078;2023-03-05T08:02:42;3.10;99.90
21551;DHT22;10936;49.836;7.078;2023-03-05T08:05:07;3.10;99.90
21551;DHT22;10936;49.836;7.078;2023-03-05T08:07:33;3.00;99.90
21551;DHT22;10936;49.836;7.078;2023-03-05T08:09:58;3.30;99.90
21551;DHT22;10936;49.836;7.078;2023-03-05T08:12:24;3.40;99.90
21551;DHT22;10936;49.836;7.078;2023-03-05T08:14:50;3.60;99.90
21551;DHT22;10936;49.836;7.078;2023-03-05T08:17:16;3.70;99.90
21551;DHT22;10936;49.836;7.078;2023-03-05T08:19:41;3.80;99.90
21551;DHT22;10936;49.836;7.078;2023-03-05T08:22:07;4.00;99.90
21551;DHT22;10936;49.836;7.078;2023-03-05T08:24:32;3.90;99.90
21551;DHT22;10936;49.836;7.078;2023-03-05T08:26:58;3.90;99.90
21551;DHT22;10936;49.836;7.078;2023-03-05T08:29:25;4.00;99.90
21551;DHT22;10936;49.836;7.078;2023-03-05T08:31:51;4.10;99.90
21551;DHT22;10936;49.836;7.078;2023-03-05T08:34:19;4.00;99.90
21551;DHT22;10936;49.836;7.078;2023-03-05T08:36:45;4.10;99.90
21551;DHT22;10936;49.836;7.078;2023-03-05T08:39:11;4.00;99.90
21551;DHT22;10936;49.836;7.078;2023-03-05T08:41:37;3.90;99.90
21551;DHT22;10936;49.836;7.078;2023-03-05T08:44:03;3.90;99.90
21551;DHT22;10936;49.836;7.078;2023-03-05T08:46:28;4.10;99.90
21551;DHT22;10936;49.836;7.078;2023-03-05T08:48:54;4.40;99.90
21551;DHT22;10936;49.836;7.078;2023-03-05T08:51:22;4.30;99.90
21551;DHT22;10936;49.836;7.078;2023-03-05T08:53:51;4.40;99.90
21551;DHT22;10936;49.836;7.078;2023-03-05T08:56:17;4.40;99.90
21551;DHT22;10936;49.836;7.078;2023-03-05T08:58:43;4.30;99.90
21551;DHT22;10936;49.836;7.078;2023-03-05T09:01:10;4.30;99.90
21551;DHT22;10936;49.836;7.078;2023-03-05T09:03:37;4.20;99.90
21551;DHT22;10936;49.836;7.078;2023-03-05T09:06:06;4.10;99.90
21551;DHT22;10936;49.836;7.078;2023-03-05T09:08:32;4.10;99.90
21551;DHT22;10936;49.836;7.078;2023-03-05T09:10:57;4.20;99.90
21551;DHT22;10936;49.836;7.078;2023-03-05T09:13:23;4.40;99.90
21551;DHT22;10936;49.836;7.078;2023-03-05T09:15:59;4.50;99.90
21551;DHT22;10936;49.836;7.078;2023-03-05T09:18:26;4.60;99.90
21551;DHT22;10936;49.836;7.078;2023-03-05T09:20:51;4.70;99.90
21551;DHT22;10936;49.836;7.078;2023-03-05T09:23:17;4.60;99.90
21551;DHT22;10936;49.836;7.078;2023-03-05T09:25:43;4.50;99.90
21551;DHT22;10936;49.836;7.078;2023-03-05T09:28:09;4.70;99.90
21551;DHT22;10936;49.836;7.078;2023-03-05T09:30:35;4.90;99.90
21551;DHT22;10936;49.836;7.078;2023-03-05T09:33:01;5.00;99.90
21551;DHT22;10936;49.836;7.078;2023-03-05T09:35:27;5.30;99.90
21551;DHT22;10936;49.836;7.078;2023-03-05T09:37:53;5.40;99.90
21551;DHT22;10936;49.836;7.078;2023-03-05T09:40:20;5.30;99.90
21551;DHT22;10936;49.836;7.078;2023-03-05T09:48:52;5.60;99.90
21551;DHT22;10936;49.836;7.078;2023-03-05T09:51:27;5.50;99.90
21551;DHT22;10936;49.836;7.078;2023-03-05T09:56:35;5.90;99.90
21551;DHT22;10936;49.836;7.078;2023-03-05T09:59:24;5.50;99.90
21551;DHT22;10936;49.836;7.078;2023-03-05T10:01:58;5.60;99.90
21551;DHT22;10936;49.836;7.078;2023-03-05T10:04:54;5.70;99.90
21551;DHT22;10936;49.836;7.078;2023-03-05T10:07:33;5.80;99.90
21551;DHT22;10936;49.836;7.078;2023-03-05T10:10:11;5.80;99.90
21551;DHT22;10936;49.836;7.078;2023-03-05T10:12:43;6.20;99.90
21551;DHT22;10936;49.836;7.078;2023-03-05T10:15:14;6.30;99.90
21551;DHT22;10936;49.836;7.078;2023-03-05T10:18:12;6.30;99.90
21551;DHT22;10936;49.836;7.078;2023-03-05T10:23:35;6.50;99.90
21551;DHT22;10936;49.836;7.078;2023-03-05T10:26:15;6.20;99.90
21551;DHT22;10936;49.836;7.078;2023-03-05T10:34:08;6.40;99.90
21551;DHT22;10936;49.836;7.078;2023-03-05T10:44:48;6.20;99.90
21551;DHT22;10936;49.836;7.078;2023-03-05T10:47:31;5.90;99.90
21551;DHT22;10936;49.836;7.078;2023-03-05T10:50:01;6.00;99.90
21551;DHT22;10936;49.836;7.078;2023-03-05T10:52:34;6.10;99.90
21551;DHT22;10936;49.836;7.078;2023-03-05T10:55:02;6.10;99.90
21551;DHT22;10936;49.836;7.078;2023-03-05T10:57:36;5.70;99.90
21551;DHT22;10936;49.836;7.078;2023-03-05T11:02:31;5.50;99.90
21551;DHT22;10936;49.836;7.078;2023-03-05T11:04:56;5.30;99.90
21551;DHT22;10936;49.836;7.078;2023-03-05T11:10:01;5.00;99.90
21551;DHT22;10936;49.836;7.078;2023-03-05T11:12:28;4.90;99.90
21551;DHT22;10936;49.836;7.078;2023-03-05T11:17:45;5.00;99.90
21551;DHT22;10936;49.836;7.078;2023-03-05T11:25:57;5.20;99.90
21551;DHT22;10936;49.836;7.078;2023-03-05T11:28:33;5.20;99.90
21551;DHT22;10936;49.836;7.078;2023-03-05T11:33:34;5.70;99.90
21551;DHT22;10936;49.836;7.078;2023-03-05T11:36:11;6.00;99.90
21551;DHT22;10936;49.836;7.078;2023-03-05T11:39:13;6.50;99.90
21551;DHT22;10936;49.836;7.078;2023-03-05T11:42:10;6.80;99.90
21551;DHT22;10936;49.836;7.078;2023-03-05T11:44:48;6.90;99.90
21551;DHT22;10936;49.836;7.078;2023-03-05T11:50:23;6.90;99.90
21551;DHT22;10936;49.836;7.078;2023-03-05T11:55:52;6.80;99.90
21551;DHT22;10936;49.836;7.078;2023-03-05T12:00:54;7.00;99.90
21551;DHT22;10936;49.836;7.078;2023-03-05T12:03:29;7.10;99.90
21551;DHT22;10936;49.836;7.078;2023-03-05T12:08:39;6.90;99.90
21551;DHT22;10936;49.836;7.078;2023-03-05T12:11:14;6.70;99.90
21551;DHT22;10936;49.836;7.078;2023-03-05T12:13:45;6.70;99.90
21551;DHT22;10936;49.836;7.078;2023-03-05T12:16:26;6.50;99.90
21551;DHT22;10936;49.836;7.078;2023-03-05T12:19:10;6.80;99.90
21551;DHT22;10936;49.836;7.078;2023-03-05T12:21:40;6.80;99.90
21551;DHT22;10936;49.836;7.078;2023-03-05T12:29:49;8.10;99.90
21551;DHT22;10936;49.836;7.078;2023-03-05T12:40:22;8.60;99.90
21551;DHT22;10936;49.836;7.078;2023-03-05T12:43:08;8.40;99.90
21551;DHT22;10936;49.836;7.078;2023-03-05T12:45:50;8.30;99.90
21551;DHT22;10936;49.836;7.078;2023-03-05T12:53:11;7.70;99.90
21551;DHT22;10936;49.836;7.078;2023-03-05T13:03:10;6.90;99.90
21551;DHT22;10936;49.836;7.078;2023-03-05T13:05:38;6.80;99.90
21551;DHT22;10936;49.836;7.078;2023-03-05T13:08:32;6.90;99.90
21551;DHT22;10936;49.836;7.078;2023-03-05T13:11:10;6.90;99.90
21551;DHT22;10936;49.836;7.078;2023-03-05T13:13:44;7.10;99.90
21551;DHT22;10936;49.836;7.078;2023-03-05T13:16:28;7.40;99.90
21551;DHT22;10936;49.836;7.078;2023-03-05T13:18:58;7.40;99.90
21551;DHT22;10936;49.836;7.078;2023-03-05T13:21:32;7.50;99.90
21551;DHT22;10936;49.836;7.078;2023-03-05T13:24:01;7.40;99.90
21551;DHT22;10936;49.836;7.078;2023-03-05T13:26:29;7.30;99.90
21551;DHT22;10936;49.836;7.078;2023-03-05T13:31:45;7.10;99.90
21551;DHT22;10936;49.836;7.078;2023-03-05T13:39:31;7.00;99.90
21551;DHT22;10936;49.836;7.078;2023-03-05T13:42:18;7.30;99.90
21551;DHT22;10936;49.836;7.078;2023-03-05T13:44:53;7.40;99.90
21551;DHT22;10936;49.836;7.078;2023-03-05T13:47:21;7.60;99.90
21551;DHT22;10936;49.836;7.078;2023-03-05T13:49:54;7.60;99.90
21551;DHT22;10936;49.836;7.078;2023-03-05T13:52:28;7.40;99.90
21551;DHT22;10936;49.836;7.078;2023-03-05T13:54:55;7.00;99.90
21551;DHT22;10936;49.836;7.078;2023-03-05T13:57:43;6.70;99.90
21551;DHT22;10936;49.836;7.078;2023-03-05T14:00:32;6.50;99.90
21551;DHT22;10936;49.836;7.078;2023-03-05T14:03:19;6.30;99.90
21551;DHT22;10936;49.836;7.078;2023-03-05T14:05:47;6.00;99.90
21551;DHT22;10936;49.836;7.078;2023-03-05T14:08:22;5.90;99.90
21551;DHT22;10936;49.836;7.078;2023-03-05T14:10:48;5.90;99.90
21551;DHT22;10936;49.836;7.078;2023-03-05T14:13:24;5.90;99.90
21551;DHT22;10936;49.836;7.078;2023-03-05T14:16:06;5.80;99.90
21551;DHT22;10936;49.836;7.078;2023-03-05T14:18:33;5.70;99.90
21551;DHT22;10936;49.836;7.078;2023-03-05T14:26:31;6.10;99.90
21551;DHT22;10936;49.836;7.078;2023-03-05T14:31:44;6.00;99.90
21551;DHT22;10936;49.836;7.078;2023-03-05T14:36:53;5.80;99.90
21551;DHT22;10936;49.836;7.078;2023-03-05T14:39:39;5.60;99.90
21551;DHT22;10936;49.836;7.078;2023-03-05T14:42:27;5.50;99.90
21551;DHT22;10936;49.836;7.078;2023-03-05T14:44:55;5.50;99.90
21551;DHT22;10936;49.836;7.078;2023-03-05T14:47:25;5.80;99.90
21551;DHT22;10936;49.836;7.078;2023-03-05T14:49:51;5.90;99.90
21551;DHT22;10936;49.836;7.078;2023-03-05T14:52:20;6.10;99.90
21551;DHT22;10936;49.836;7.078;2023-03-05T14:54:46;6.30;99.90
21551;DHT22;10936;49.836;7.078;2023-03-05T14:57:16;6.40;99.90
21551;DHT22;10936;49.836;7.078;2023-03-05T14:59:42;6.40;99.90
21551;DHT22;10936;49.836;7.078;2023-03-05T15:02:14;6.20;99.90
21551;DHT22;10936;49.836;7.078;2023-03-05T15:04:39;6.20;99.90
21551;DHT22;10936;49.836;7.078;2023-03-05T15:07:05;6.20;99.90
21551;DHT22;10936;49.836;7.078;2023-03-05T15:09:32;6.50;99.90
21551;DHT22;10936;49.836;7.078;2023-03-05T15:11:58;6.70;99.90
21551;DHT22;10936;49.836;7.078;2023-03-05T15:14:23;6.60;99.90
21551;DHT22;10936;49.836;7.078;2023-03-05T15:16:49;6.40;99.90
21551;DHT22;10936;49.836;7.078;2023-03-05T15:19:15;6.20;99.90
21551;DHT22;10936;49.836;7.078;2023-03-05T15:21:40;6.30;99.90
21551;DHT22;10936;49.836;7.078;2023-03-05T15:24:06;6.20;99.90
21551;DHT22;10936;49.836;7.078;2023-03-05T15:26:32;6.00;99.90
21551;DHT22;10936;49.836;7.078;2023-03-05T15:28:57;5.90;99.90
21551;DHT22;10936;49.836;7.078;2023-03-05T15:31:23;5.80;99.90
21551;DHT22;10936;49.836;7.078;2023-03-05T15:33:49;5.50;99.90
21551;DHT22;10936;49.836;7.078;2023-03-05T15:36:14;5.70;99.90
21551;DHT22;10936;49.836;7.078;2023-03-05T15:38:40;5.70;99.90
21551;DHT22;10936;49.836;7.078;2023-03-05T15:41:06;5.60;99.90
21551;DHT22;10936;49.836;7.078;2023-03-05T15:43:31;5.40;99.90
21551;DHT22;10936;49.836;7.078;2023-03-05T15:45:58;5.50;99.90
21551;DHT22;10936;49.836;7.078;2023-03-05T15:48:24;5.20;99.90
21551;DHT22;10936;49.836;7.078;2023-03-05T15:50:49;5.00;99.90
21551;DHT22;10936;49.836;7.078;2023-03-05T15:53:15;4.70;99.90
21551;DHT22;10936;49.836;7.078;2023-03-05T15:55:42;4.60;99.90
21551;DHT22;10936;49.836;7.078;2023-03-05T15:58:08;4.50;99.90
21551;DHT22;10936;49.836;7.078;2023-03-05T16:00:35;4.40;99.90
21551;DHT22;10936;49.836;7.078;2023-03-05T16:03:01;4.50;99.90
21551;DHT22;10936;49.836;7.078;2023-03-05T16:05:27;4.40;99.90
21551;DHT22;10936;49.836;7.078;2023-03-05T16:07:53;4.40;99.90
21551;DHT22;10936;49.836;7.078;2023-03-05T16:10:22;4.50;99.90
21551;DHT22;10936;49.836;7.078;2023-03-05T16:12:52;4.50;99.90
21551;DHT22;10936;49.836;7.078;2023-03-05T16:15:19;4.50;99.90
21551;DHT22;10936;49.836;7.078;2023-03-05T16:17:48;4.30;99.90
21551;DHT22;10936;49.836;7.078;2023-03-05T16:20:16;4.20;99.90
21551;DHT22;10936;49.836;7.078;2023-03-05T16:22:42;4.20;99.90
21551;DHT22;10936;49.836;7.078;2023-03-05T16:25:07;4.10;99.90
21551;DHT22;10936;49.836;7.078;2023-03-05T16:27:33;4.10;99.90
21551;DHT22;10936;49.836;7.078;2023-03-05T16:29:59;4.00;99.90
21551;DHT22;10936;49.836;7.078;2023-03-05T16:32:24;4.00;99.90
21551;DHT22;10936;49.836;7.078;2023-03-05T16:34:50;4.00;99.90
21551;DHT22;10936;49.836;7.078;2023-03-05T16:37:21;3.90;99.90
21551;DHT22;10936;49.836;7.078;2023-03-05T16:39:47;3.80;99.90
21551;DHT22;10936;49.836;7.078;2023-03-05T16:42:14;3.90;99.90
21551;DHT22;10936;49.836;7.078;2023-03-05T16:44:40;3.80;99.90
21551;DHT22;10936;49.836;7.078;2023-03-05T16:47:06;3.80;99.90
21551;DHT22;10936;49.836;7.078;2023-03-05T16:49:33;3.80;99.90
21551;DHT22;10936;49.836;7.078;2023-03-05T16:52:00;3.70;99.90
21551;DHT22;10936;49.836;7.078;2023-03-05T16:54:26;3.70;99.90
21551;DHT22;10936;49.836;7.078;2023-03-05T16:56:51;3.70;99.90
21551;DHT22;10936;49.836;7.078;2023-03-05T16:59:17;3.60;99.90
21551;DHT22;10936;49.836;7.078;2023-03-05T17:01:43;3.60;99.90
21551;DHT22;10936;49.836;7.078;2023-03-05T17:04:09;3.50;99.90
21551;DHT22;10936;49.836;7.078;2023-03-05T17:06:34;3.50;99.90
21551;DHT22;10936;49.836;7.078;2023-03-05T17:09:01;3.40;99.90
21551;DHT22;10936;49.836;7.078;2023-03-05T17:11:27;3.40;99.90
21551;DHT22;10936;49.836;7.078;2023-03-05T17:13:53;3.30;99.90
21551;DHT22;10936;49.836;7.078;2023-03-05T17:16:19;3.40;99.90
21551;DHT22;10936;49.836;7.078;2023-03-05T17:18:45;3.50;99.90
21551;DHT22;10936;49.836;7.078;2023-03-05T17:21:11;3.40;99.90
21551;DHT22;10936;49.836;7.078;2023-03-05T17:23:38;3.40;99.90
21551;DHT22;10936;49.836;7.078;2023-03-05T17:26:10;3.30;99.90
21551;DHT22;10936;49.836;7.078;2023-03-05T17:28:36;3.30;99.90
21551;DHT22;10936;49.836;7.078;2023-03-05T17:31:02;3.30;99.90
21551;DHT22;10936;49.836;7.078;2023-03-05T17:33:29;3.20;99.90
21551;DHT22;10936;49.836;7.078;2023-03-05T17:35:55;3.20;99.90
21551;DHT22;10936;49.836;7.078;2023-03-05T17:38:21;3.10;99.90
21551;DHT22;10936;49.836;7.078;2023-03-05T17:40:47;3.10;99.90
21551;DHT22;10936;49.836;7.078;2023-03-05T17:43:13;3.20;99.90
21551;DHT22;10936;49.836;7.078;2023-03-05T17:45:38;3.30;99.90
21551;DHT22;10936;49.836;7.078;2023-03-05T17:48:04;3.20;99.90
21551;DHT22;10936;49.836;7.078;2023-03-05T17:50:30;3.20;99.90
21551;DHT22;10936;49.836;7.078;2023-03-05T17:52:56;3.30;99.90
21551;DHT22;10936;49.836;7.078;2023-03-05T17:55:21;3.30;99.90
21551;DHT22;10936;49.836;7.078;2023-03-05T17:57:49;3.20;99.90
21551;DHT22;10936;49.836;7.078;2023-03-05T18:00:20;3.20;99.90
21551;DHT22;10936;49.836;7.078;2023-03-05T18:02:47;3.20;99.90
21551;DHT22;10936;49.836;7.078;2023-03-05T18:05:13;3.10;99.90
21551;DHT22;10936;49.836;7.078;2023-03-05T18:07:38;3.10;99.90
21551;DHT22;10936;49.836;7.078;2023-03-05T18:10:05;3.20;99.90
21551;DHT22;10936;49.836;7.078;2023-03-05T18:12:31;3.10;99.90
21551;DHT22;10936;49.836;7.078;2023-03-05T18:14:57;3.10;99.90
21551;DHT22;10936;49.836;7.078;2023-03-05T18:17:23;3.00;99.90
21551;DHT22;10936;49.836;7.078;2023-03-05T18:19:49;3.00;99.90
21551;DHT22;10936;49.836;7.078;2023-03-05T18:22:14;2.90;99.90
21551;DHT22;10936;49.836;7.078;2023-03-05T18:24:40;2.90;99.90
21551;DHT22;10936;49.836;7.078;2023-03-05T18:27:06;2.90;99.90
21551;DHT22;10936;49.836;7.078;2023-03-05T18:29:31;2.90;99.90
21551;DHT22;10936;49.836;7.078;2023-03-05T18:31:58;2.90;99.90
21551;DHT22;10936;49.836;7.078;2023-03-05T18:34:24;2.80;99.90
21551;DHT22;10936;49.836;7.078;2023-03-05T18:36:50;2.80;99.90
21551;DHT22;10936;49.836;7.078;2023-03-05T18:39:16;2.80;99.90
21551;DHT22;10936;49.836;7.078;2023-03-05T18:41:43;2.80;99.90
21551;DHT22;10936;49.836;7.078;2023-03-05T18:44:10;2.70;99.90
21551;DHT22;10936;49.836;7.078;2023-03-05T18:46:35;2.70;99.90
21551;DHT22;10936;49.836;7.078;2023-03-05T18:49:01;2.80;99.90
21551;DHT22;10936;49.836;7.078;2023-03-05T18:51:27;2.70;99.90
21551;DHT22;10936;49.836;7.078;2023-03-05T18:53:53;2.80;99.90
21551;DHT22;10936;49.836;7.078;2023-03-05T18:56:22;2.70;99.90
21551;DHT22;10936;49.836;7.078;2023-03-05T18:58:48;2.70;99.90
21551;DHT22;10936;49.836;7.078;2023-03-05T19:01:15;2.80;99.90
21551;DHT22;10936;49.836;7.078;2023-03-05T19:03:43;2.80;99.90
21551;DHT22;10936;49.836;7.078;2023-03-05T19:06:08;2.80;99.90
21551;DHT22;10936;49.836;7.078;2023-03-05T19:08:34;2.70;99.90
21551;DHT22;10936;49.836;7.078;2023-03-05T19:11:00;2.70;99.90
21551;DHT22;10936;49.836;7.078;2023-03-05T19:16:12;2.70;99.90
21551;DHT22;10936;49.836;7.078;2023-03-05T19:18:38;2.80;99.90
21551;DHT22;10936;49.836;7.078;2023-03-05T19:21:09;2.70;99.90
21551;DHT22;10936;49.836;7.078;2023-03-05T19:23:35;2.70;99.90
21551;DHT22;10936;49.836;7.078;2023-03-05T19:26:01;2.70;99.90
21551;DHT22;10936;49.836;7.078;2023-03-05T19:28:27;2.70;99.90
21551;DHT22;10936;49.836;7.078;2023-03-05T19:30:55;2.60;99.90
21551;DHT22;10936;49.836;7.078;2023-03-05T19:33:20;2.60;99.90
21551;DHT22;10936;49.836;7.078;2023-03-05T19:35:46;2.60;99.90
21551;DHT22;10936;49.836;7.078;2023-03-05T19:38:14;2.50;99.90
21551;DHT22;10936;49.836;7.078;2023-03-05T19:40:40;2.60;99.90
21551;DHT22;10936;49.836;7.078;2023-03-05T19:43:06;2.60;99.90
21551;DHT22;10936;49.836;7.078;2023-03-05T19:45:32;2.60;99.90
21551;DHT22;10936;49.836;7.078;2023-03-05T19:47:58;2.60;99.90
21551;DHT22;10936;49.836;7.078;2023-03-05T19:50:24;2.60;99.90
21551;DHT22;10936;49.836;7.078;2023-03-05T19:52:49;2.60;99.90
21551;DHT22;10936;49.836;7.078;2023-03-05T19:55:15;2.60;99.90
21551;DHT22;10936;49.836;7.078;2023-03-05T19:57:40;2.70;99.90
21551;DHT22;10936;49.836;7.078;2023-03-05T20:00:07;2.70;99.90
21551;DHT22;10936;49.836;7.078;2023-03-05T20:02:32;2.80;99.90
21551;DHT22;10936;49.836;7.078;2023-03-05T20:04:58;2.90;99.90
21551;DHT22;10936;49.836;7.078;2023-03-05T20:07:23;2.80;99.90
21551;DHT22;10936;49.836;7.078;2023-03-05T20:09:49;2.70;99.90
21551;DHT22;10936;49.836;7.078;2023-03-05T20:12:17;2.60;99.90
21551;DHT22;10936;49.836;7.078;2023-03-05T20:14:42;2.70;99.90
21551;DHT22;10936;49.836;7.078;2023-03-05T20:17:08;2.80;99.90
21551;DHT22;10936;49.836;7.078;2023-03-05T20:19:34;2.80;99.90
21551;DHT22;10936;49.836;7.078;2023-03-05T20:22:00;2.80;99.90
21551;DHT22;10936;49.836;7.078;2023-03-05T20:24:26;2.70;99.90
21551;DHT22;10936;49.836;7.078;2023-03-05T20:26:52;2.70;99.90
21551;DHT22;10936;49.836;7.078;2023-03-05T20:29:17;2.70;99.90
21551;DHT22;10936;49.836;7.078;2023-03-05T20:31:43;2.60;99.90
21551;DHT22;10936;49.836;7.078;2023-03-05T20:34:13;2.70;99.90
21551;DHT22;10936;49.836;7.078;2023-03-05T20:36:39;2.70;99.90
21551;DHT22;10936;49.836;7.078;2023-03-05T20:39:06;2.70;99.90
21551;DHT22;10936;49.836;7.078;2023-03-05T20:41:34;2.60;99.90
21551;DHT22;10936;49.836;7.078;2023-03-05T20:44:00;2.60;99.90
21551;DHT22;10936;49.836;7.078;2023-03-05T20:46:30;2.70;99.90
21551;DHT22;10936;49.836;7.078;2023-03-05T20:48:58;2.60;99.90
21551;DHT22;10936;49.836;7.078;2023-03-05T20:51:32;2.60;99.90
21551;DHT22;10936;49.836;7.078;2023-03-05T20:54:02;2.60;99.90
21551;DHT22;10936;49.836;7.078;2023-03-05T20:56:30;2.70;99.90
21551;DHT22;10936;49.836;7.078;2023-03-05T20:58:57;2.70;99.90
21551;DHT22;10936;49.836;7.078;2023-03-05T21:01:25;2.70;99.90
21551;DHT22;10936;49.836;7.078;2023-03-05T21:03:51;2.70;99.90
21551;DHT22;10936;49.836;7.078;2023-03-05T21:06:18;2.80;99.90
21551;DHT22;10936;49.836;7.078;2023-03-05T21:08:44;2.70;99.90
21551;DHT22;10936;49.836;7.078;2023-03-05T21:11:10;2.60;99.90
21551;DHT22;10936;49.836;7.078;2023-03-05T21:13:36;2.60;99.90
21551;DHT22;10936;49.836;7.078;2023-03-05T21:16:10;2.60;99.90
21551;DHT22;10936;49.836;7.078;2023-03-05T21:18:36;2.60;99.90
21551;DHT22;10936;49.836;7.078;2023-03-05T21:21:01;2.70;99.90
21551;DHT22;10936;49.836;7.078;2023-03-05T21:23:27;2.60;99.90
21551;DHT22;10936;49.836;7.078;2023-03-05T21:25:53;2.60;99.90
21551;DHT22;10936;49.836;7.078;2023-03-05T21:28:20;2.60;99.90
21551;DHT22;10936;49.836;7.078;2023-03-05T21:30:48;2.60;99.90
21551;DHT22;10936;49.836;7.078;2023-03-05T21:33:21;2.60;99.90
21551;DHT22;10936;49.836;7.078;2023-03-05T21:35:48;2.60;99.90
21551;DHT22;10936;49.836;7.078;2023-03-05T21:38:14;2.50;99.90
21551;DHT22;10936;49.836;7.078;2023-03-05T21:40:42;2.50;99.90
21551;DHT22;10936;49.836;7.078;2023-03-05T21:43:09;2.50;99.90
21551;DHT22;10936;49.836;7.078;2023-03-05T21:45:35;2.50;99.90
21551;DHT22;10936;49.836;7.078;2023-03-05T21:48:00;2.50;99.90
21551;DHT22;10936;49.836;7.078;2023-03-05T21:50:26;2.50;99.90
21551;DHT22;10936;49.836;7.078;2023-03-05T21:52:52;2.40;99.90
21551;DHT22;10936;49.836;7.078;2023-03-05T21:55:22;2.30;99.90
21551;DHT22;10936;49.836;7.078;2023-03-05T21:57:56;2.30;99.90
21551;DHT22;10936;49.836;7.078;2023-03-05T22:00:22;2.30;99.90
21551;DHT22;10936;49.836;7.078;2023-03-05T22:02:48;2.30;99.90
21551;DHT22;10936;49.836;7.078;2023-03-05T22:05:14;2.20;99.90
21551;DHT22;10936;49.836;7.078;2023-03-05T22:07:40;2.10;99.90
21551;DHT22;10936;49.836;7.078;2023-03-05T22:10:09;2.10;99.90
21551;DHT22;10936;49.836;7.078;2023-03-05T22:12:39;2.10;99.90
21551;DHT22;10936;49.836;7.078;2023-03-05T22:15:17;2.10;99.90
21551;DHT22;10936;49.836;7.078;2023-03-05T22:17:43;2.10;99.90
21551;DHT22;10936;49.836;7.078;2023-03-05T22:20:09;2.20;99.90
21551;DHT22;10936;49.836;7.078;2023-03-05T22:22:35;2.20;99.90
21551;DHT22;10936;49.836;7.078;2023-03-05T22:25:01;2.10;99.90
21551;DHT22;10936;49.836;7.078;2023-03-05T22:27:28;2.10;99.90
21551;DHT22;10936;49.836;7.078;2023-03-05T22:29:53;2.10;99.90
